sensor_id;sensor_type;location;lat;lon;timestamp;P1;durP1;ratioP1;P2;durP2;ratioP2
20491;SDS011;10404;51.468;6.762;2024-03-23T00:55:11;6.45;;;2.15;;
20491;SDS011;10404;51.468;6.762;2024-03-23T00:57:37;4.88;;;1.70;;
20491;SDS011;10404;51.468;6.762;2024-03-23T01:00:03;7.97;;;2.15;;
20491;SDS011;10404;51.468;6.762;2024-03-23T01:02:31;3.60;;;1.30;;
20491;SDS011;10404;51.468;6.762;2024-03-23T01:04:57;3.67;;;1.70;;
20491;SDS011;10404;51.468;6.762;2024-03-23T01:07:22;5.07;;;1.85;;
20491;SDS011;10404;51.468;6.762;2024-03-23T01:09:48;5.30;;;1.92;;
20491;SDS011;10404;51.468;6.762;2024-03-23T01:12:14;5.95;;;1.60;;
20491;SDS011;10404;51.468;6.762;2024-03-23T01:14:42;5.38;;;1.60;;
20491;SDS011;10404;51.468;6.762;2024-03-23T01:17:08;6.38;;;1.63;;
20491;SDS011;10404;51.468;6.762;2024-03-23T01:19:33;6.15;;;1.52;;
20491;SDS011;10404;51.468;6.762;2024-03-23T01:21:59;5.32;;;1.35;;
20491;SDS011;10404;51.468;6.762;2024-03-23T01:24:24;6.03;;;1.60;;
20491;SDS011;10404;51.468;6.762;2024-03-23T01:26:50;4.28;;;1.70;;
20491;SDS011;10404;51.468;6.762;2024-03-23T01:29:15;4.93;;;1.83;;
20491;SDS011;10404;51.468;6.762;2024-03-23T01:31:41;4.30;;;1.50;;
20491;SDS011;10404;51.468;6.762;2024-03-23T01:34:06;4.47;;;1.30;;
20491;SDS011;10404;51.468;6.762;2024-03-23T01:36:32;4.10;;;1.45;;
20491;SDS011;10404;51.468;6.762;2024-03-23T01:38:58;3.70;;;1.50;;
20491;SDS011;10404;51.468;6.762;2024-03-23T01:41:24;5.20;;;1.50;;
20491;SDS011;10404;51.468;6.762;2024-03-23T01:43:50;5.32;;;1.20;;
20491;SDS011;10404;51.468;6.762;2024-03-23T01:46:16;2.17;;;1.05;;
20491;SDS011;10404;51.468;6.762;2024-03-23T01:48:42;3.83;;;1.63;;
20491;SDS011;10404;51.468;6.762;2024-03-23T01:51:07;3.47;;;1.27;;
20491;SDS011;10404;51.468;6.762;2024-03-23T01:53:33;4.72;;;1.58;;
20491;SDS011;10404;51.468;6.762;2024-03-23T01:55:58;4.05;;;1.45;;
20491;SDS011;10404;51.468;6.762;2024-03-23T01:58:24;4.10;;;1.15;;
20491;SDS011;10404;51.468;6.762;2024-03-23T02:00:50;3.58;;;1.45;;
20491;SDS011;10404;51.468;6.762;2024-03-23T02:03:25;3.65;;;0.80;;
20491;SDS011;10404;51.468;6.762;2024-03-23T02:05:52;3.08;;;1.08;;
20491;SDS011;10404;51.468;6.762;2024-03-23T02:08:19;2.28;;;1.30;;
20491;SDS011;10404;51.468;6.762;2024-03-23T02:10:47;2.55;;;1.08;;
20491;SDS011;10404;51.468;6.762;2024-03-23T02:13:14;3.55;;;0.80;;
20491;SDS011;10404;51.468;6.762;2024-03-23T02:15:41;3.03;;;1.35;;
20491;SDS011;10404;51.468;6.762;2024-03-23T02:18:07;2.13;;;1.25;;
20491;SDS011;10404;51.468;6.762;2024-03-23T02:20:36;3.95;;;1.38;;
20491;SDS011;10404;51.468;6.762;2024-03-23T02:23:03;4.00;;;1.05;;
20491;SDS011;10404;51.468;6.762;2024-03-23T02:25:37;2.47;;;0.82;;
20491;SDS011;10404;51.468;6.762;2024-03-23T02:28:03;2.72;;;1.30;;
20491;SDS011;10404;51.468;6.762;2024-03-23T02:30:29;2.28;;;0.85;;
20491;SDS011;10404;51.468;6.762;2024-03-23T02:32:55;4.10;;;1.45;;
20491;SDS011;10404;51.468;6.762;2024-03-23T02:35:21;3.00;;;1.15;;
20491;SDS011;10404;51.468;6.762;2024-03-23T02:37:46;2.55;;;0.98;;
20491;SDS011;10404;51.468;6.762;2024-03-23T02:40:16;2.30;;;1.38;;
20491;SDS011;10404;51.468;6.762;2024-03-23T02:42:42;2.97;;;1.23;;
20491;SDS011;10404;51.468;6.762;2024-03-23T02:45:07;2.67;;;1.65;;
20491;SDS011;10404;51.468;6.762;2024-03-23T02:47:33;4.32;;;1.42;;
20491;SDS011;10404;51.468;6.762;2024-03-23T02:49:59;3.10;;;1.23;;
20491;SDS011;10404;51.468;6.762;2024-03-23T02:52:24;5.88;;;2.00;;
20491;SDS011;10404;51.468;6.762;2024-03-23T02:54:50;4.18;;;1.70;;
20491;SDS011;10404;51.468;6.762;2024-03-23T02:57:15;6.10;;;1.50;;
20491;SDS011;10404;51.468;6.762;2024-03-23T02:59:41;4.45;;;1.60;;
20491;SDS011;10404;51.468;6.762;2024-03-23T03:02:07;3.72;;;1.48;;
20491;SDS011;10404;51.468;6.762;2024-03-23T03:04:32;4.28;;;1.48;;
20491;SDS011;10404;51.468;6.762;2024-03-23T03:06:58;5.25;;;1.77;;
20491;SDS011;10404;51.468;6.762;2024-03-23T03:09:23;2.95;;;1.02;;
20491;SDS011;10404;51.468;6.762;2024-03-23T03:11:49;4.82;;;1.85;;
20491;SDS011;10404;51.468;6.762;2024-03-23T03:14:15;3.70;;;1.80;;
20491;SDS011;10404;51.468;6.762;2024-03-23T03:16:40;2.53;;;1.15;;
20491;SDS011;10404;51.468;6.762;2024-03-23T03:19:06;2.50;;;1.23;;
20491;SDS011;10404;51.468;6.762;2024-03-23T03:21:31;5.57;;;1.77;;
20491;SDS011;10404;51.468;6.762;2024-03-23T03:23:57;3.40;;;1.10;;
20491;SDS011;10404;51.468;6.762;2024-03-23T03:26:23;4.82;;;1.45;;
20491;SDS011;10404;51.468;6.762;2024-03-23T03:28:49;3.00;;;1.00;;
20491;SDS011;10404;51.468;6.762;2024-03-23T03:31:15;4.32;;;1.33;;
20491;SDS011;10404;51.468;6.762;2024-03-23T03:33:42;5.05;;;1.75;;
20491;SDS011;10404;51.468;6.762;2024-03-23T03:36:08;3.10;;;0.90;;
20491;SDS011;10404;51.468;6.762;2024-03-23T03:38:33;5.28;;;1.40;;
20491;SDS011;10404;51.468;6.762;2024-03-23T03:43:29;4.43;;;1.10;;
20491;SDS011;10404;51.468;6.762;2024-03-23T03:45:55;4.60;;;1.48;;
20491;SDS011;10404;51.468;6.762;2024-03-23T03:48:22;4.00;;;1.45;;
20491;SDS011;10404;51.468;6.762;2024-03-23T03:50:47;3.60;;;1.20;;
20491;SDS011;10404;51.468;6.762;2024-03-23T03:53:13;3.00;;;1.17;;
20491;SDS011;10404;51.468;6.762;2024-03-23T03:55:39;2.17;;;0.85;;
20491;SDS011;10404;51.468;6.762;2024-03-23T03:58:04;2.45;;;0.85;;
20491;SDS011;10404;51.468;6.762;2024-03-23T04:00:30;3.35;;;1.15;;
20491;SDS011;10404;51.468;6.762;2024-03-23T04:02:56;4.57;;;1.45;;
20491;SDS011;10404;51.468;6.762;2024-03-23T04:05:22;5.15;;;1.10;;
20491;SDS011;10404;51.468;6.762;2024-03-23T04:07:47;4.60;;;0.98;;
20491;SDS011;10404;51.468;6.762;2024-03-23T04:10:13;2.92;;;1.00;;
20491;SDS011;10404;51.468;6.762;2024-03-23T04:12:40;2.40;;;1.05;;
20491;SDS011;10404;51.468;6.762;2024-03-23T04:15:06;3.22;;;1.30;;
20491;SDS011;10404;51.468;6.762;2024-03-23T04:17:32;5.55;;;1.35;;
20491;SDS011;10404;51.468;6.762;2024-03-23T04:19:59;3.58;;;1.02;;
20491;SDS011;10404;51.468;6.762;2024-03-23T04:22:25;6.95;;;1.38;;
20491;SDS011;10404;51.468;6.762;2024-03-23T04:24:55;2.72;;;1.05;;
20491;SDS011;10404;51.468;6.762;2024-03-23T04:27:21;4.07;;;1.38;;
20491;SDS011;10404;51.468;6.762;2024-03-23T04:29:50;2.97;;;0.82;;
20491;SDS011;10404;51.468;6.762;2024-03-23T04:32:16;3.35;;;1.15;;
20491;SDS011;10404;51.468;6.762;2024-03-23T04:34:42;2.85;;;1.02;;
20491;SDS011;10404;51.468;6.762;2024-03-23T04:37:08;3.03;;;1.25;;
20491;SDS011;10404;51.468;6.762;2024-03-23T04:39:35;3.67;;;1.25;;
20491;SDS011;10404;51.468;6.762;2024-03-23T04:42:01;3.90;;;1.05;;
20491;SDS011;10404;51.468;6.762;2024-03-23T04:44:27;4.40;;;1.33;;
20491;SDS011;10404;51.468;6.762;2024-03-23T04:46:53;2.50;;;1.20;;
20491;SDS011;10404;51.468;6.762;2024-03-23T04:49:19;4.10;;;1.45;;
20491;SDS011;10404;51.468;6.762;2024-03-23T04:51:44;4.03;;;1.92;;
20491;SDS011;10404;51.468;6.762;2024-03-23T04:54:14;3.53;;;1.35;;
20491;SDS011;10404;51.468;6.762;2024-03-23T04:56:40;3.88;;;1.30;;
20491;SDS011;10404;51.468;6.762;2024-03-23T04:59:06;2.85;;;1.50;;
20491;SDS011;10404;51.468;6.762;2024-03-23T05:01:31;3.65;;;1.60;;
20491;SDS011;10404;51.468;6.762;2024-03-23T05:03:57;2.90;;;1.65;;
20491;SDS011;10404;51.468;6.762;2024-03-23T05:06:23;6.18;;;1.85;;
20491;SDS011;10404;51.468;6.762;2024-03-23T05:08:49;5.63;;;1.80;;
20491;SDS011;10404;51.468;6.762;2024-03-23T05:11:15;3.60;;;1.33;;
20491;SDS011;10404;51.468;6.762;2024-03-23T05:13:41;3.72;;;1.45;;
20491;SDS011;10404;51.468;6.762;2024-03-23T05:16:07;2.92;;;2.00;;
20491;SDS011;10404;51.468;6.762;2024-03-23T05:18:33;4.97;;;1.83;;
20491;SDS011;10404;51.468;6.762;2024-03-23T05:20:59;5.93;;;1.77;;
20491;SDS011;10404;51.468;6.762;2024-03-23T05:23:26;4.85;;;1.70;;
20491;SDS011;10404;51.468;6.762;2024-03-23T05:25:52;7.63;;;2.65;;
20491;SDS011;10404;51.468;6.762;2024-03-23T05:28:21;4.78;;;1.50;;
20491;SDS011;10404;51.468;6.762;2024-03-23T05:30:53;3.97;;;2.20;;
20491;SDS011;10404;51.468;6.762;2024-03-23T05:33:20;4.40;;;1.88;;
20491;SDS011;10404;51.468;6.762;2024-03-23T05:35:46;6.72;;;2.22;;
20491;SDS011;10404;51.468;6.762;2024-03-23T05:38:12;3.70;;;1.67;;
20491;SDS011;10404;51.468;6.762;2024-03-23T05:40:39;4.90;;;2.22;;
20491;SDS011;10404;51.468;6.762;2024-03-23T05:43:05;4.13;;;1.83;;
20491;SDS011;10404;51.468;6.762;2024-03-23T05:45:32;6.22;;;2.00;;
20491;SDS011;10404;51.468;6.762;2024-03-23T05:47:58;4.00;;;1.63;;
20491;SDS011;10404;51.468;6.762;2024-03-23T05:50:24;4.82;;;2.35;;
20491;SDS011;10404;51.468;6.762;2024-03-23T05:52:55;4.78;;;1.90;;
20491;SDS011;10404;51.468;6.762;2024-03-23T05:55:20;4.20;;;1.75;;
20491;SDS011;10404;51.468;6.762;2024-03-23T05:57:46;5.32;;;2.03;;
20491;SDS011;10404;51.468;6.762;2024-03-23T06:00:11;3.92;;;2.28;;
20491;SDS011;10404;51.468;6.762;2024-03-23T06:02:43;4.40;;;2.30;;
20491;SDS011;10404;51.468;6.762;2024-03-23T06:05:09;4.10;;;1.88;;
20491;SDS011;10404;51.468;6.762;2024-03-23T06:07:38;4.07;;;2.25;;
20491;SDS011;10404;51.468;6.762;2024-03-23T06:10:04;4.97;;;1.73;;
20491;SDS011;10404;51.468;6.762;2024-03-23T06:12:31;3.00;;;1.60;;
20491;SDS011;10404;51.468;6.762;2024-03-23T06:14:59;5.00;;;2.10;;
20491;SDS011;10404;51.468;6.762;2024-03-23T06:17:24;3.97;;;2.20;;
20491;SDS011;10404;51.468;6.762;2024-03-23T06:19:50;4.53;;;2.13;;
20491;SDS011;10404;51.468;6.762;2024-03-23T06:22:16;6.50;;;1.98;;
20491;SDS011;10404;51.468;6.762;2024-03-23T06:24:41;5.43;;;2.42;;
20491;SDS011;10404;51.468;6.762;2024-03-23T06:27:07;7.20;;;2.53;;
20491;SDS011;10404;51.468;6.762;2024-03-23T06:29:32;3.05;;;1.73;;
20491;SDS011;10404;51.468;6.762;2024-03-23T06:31:58;4.03;;;1.95;;
20491;SDS011;10404;51.468;6.762;2024-03-23T06:34:24;3.95;;;2.03;;
20491;SDS011;10404;51.468;6.762;2024-03-23T06:36:49;5.57;;;2.42;;
20491;SDS011;10404;51.468;6.762;2024-03-23T06:39:18;7.82;;;2.65;;
20491;SDS011;10404;51.468;6.762;2024-03-23T06:42:01;4.60;;;2.33;;
20491;SDS011;10404;51.468;6.762;2024-03-23T06:44:27;5.57;;;2.38;;
20491;SDS011;10404;51.468;6.762;2024-03-23T06:46:53;4.80;;;2.50;;
20491;SDS011;10404;51.468;6.762;2024-03-23T06:49:18;4.60;;;2.10;;
20491;SDS011;10404;51.468;6.762;2024-03-23T06:51:47;5.18;;;2.45;;
20491;SDS011;10404;51.468;6.762;2024-03-23T06:54:22;6.00;;;2.58;;
20491;SDS011;10404;51.468;6.762;2024-03-23T06:56:49;8.85;;;2.83;;
20491;SDS011;10404;51.468;6.762;2024-03-23T06:59:15;5.70;;;2.65;;
20491;SDS011;10404;51.468;6.762;2024-03-23T07:01:40;5.60;;;2.50;;
20491;SDS011;10404;51.468;6.762;2024-03-23T07:04:07;8.63;;;3.13;;
20491;SDS011;10404;51.468;6.762;2024-03-23T07:06:33;6.68;;;2.90;;
20491;SDS011;10404;51.468;6.762;2024-03-23T07:08:58;6.22;;;3.20;;
20491;SDS011;10404;51.468;6.762;2024-03-23T07:11:24;6.70;;;3.33;;
20491;SDS011;10404;51.468;6.762;2024-03-23T07:13:50;5.28;;;2.85;;
20491;SDS011;10404;51.468;6.762;2024-03-23T07:16:16;6.60;;;2.80;;
20491;SDS011;10404;51.468;6.762;2024-03-23T07:18:43;8.25;;;3.38;;
20491;SDS011;10404;51.468;6.762;2024-03-23T07:21:09;7.68;;;3.67;;
20491;SDS011;10404;51.468;6.762;2024-03-23T07:23:34;5.72;;;3.20;;
20491;SDS011;10404;51.468;6.762;2024-03-23T07:26:00;7.57;;;2.90;;
20491;SDS011;10404;51.468;6.762;2024-03-23T07:28:27;5.90;;;3.50;;
20491;SDS011;10404;51.468;6.762;2024-03-23T07:31:14;6.50;;;3.88;;
20491;SDS011;10404;51.468;6.762;2024-03-23T07:36:10;7.65;;;3.28;;
20491;SDS011;10404;51.468;6.762;2024-03-23T07:38:35;10.50;;;3.78;;
20491;SDS011;10404;51.468;6.762;2024-03-23T07:41:04;10.20;;;3.70;;
20491;SDS011;10404;51.468;6.762;2024-03-23T07:43:31;9.88;;;3.50;;
20491;SDS011;10404;51.468;6.762;2024-03-23T07:45:56;7.88;;;3.25;;
20491;SDS011;10404;51.468;6.762;2024-03-23T07:48:22;8.43;;;3.72;;
20491;SDS011;10404;51.468;6.762;2024-03-23T07:53:29;7.18;;;3.38;;
20491;SDS011;10404;51.468;6.762;2024-03-23T07:55:57;9.13;;;3.22;;
20491;SDS011;10404;51.468;6.762;2024-03-23T07:58:24;9.70;;;3.47;;
20491;SDS011;10404;51.468;6.762;2024-03-23T08:00:51;6.40;;;3.65;;
20491;SDS011;10404;51.468;6.762;2024-03-23T08:03:20;5.95;;;2.60;;
20491;SDS011;10404;51.468;6.762;2024-03-23T08:05:46;6.07;;;3.35;;
20491;SDS011;10404;51.468;6.762;2024-03-23T08:08:13;6.88;;;2.85;;
20491;SDS011;10404;51.468;6.762;2024-03-23T08:10:51;6.07;;;2.67;;
20491;SDS011;10404;51.468;6.762;2024-03-23T08:13:17;6.90;;;3.22;;
20491;SDS011;10404;51.468;6.762;2024-03-23T08:15:44;7.93;;;3.53;;
20491;SDS011;10404;51.468;6.762;2024-03-23T08:18:11;6.20;;;2.92;;
20491;SDS011;10404;51.468;6.762;2024-03-23T08:20:38;8.63;;;3.55;;
20491;SDS011;10404;51.468;6.762;2024-03-23T08:23:05;9.25;;;3.35;;
20491;SDS011;10404;51.468;6.762;2024-03-23T08:25:31;5.38;;;2.95;;
20491;SDS011;10404;51.468;6.762;2024-03-23T08:27:57;7.13;;;3.28;;
20491;SDS011;10404;51.468;6.762;2024-03-23T08:30:23;5.15;;;2.97;;
20491;SDS011;10404;51.468;6.762;2024-03-23T08:32:49;6.72;;;3.00;;
20491;SDS011;10404;51.468;6.762;2024-03-23T08:35:14;6.38;;;3.30;;
20491;SDS011;10404;51.468;6.762;2024-03-23T08:37:40;6.45;;;2.90;;
20491;SDS011;10404;51.468;6.762;2024-03-23T08:40:05;6.55;;;3.22;;
20491;SDS011;10404;51.468;6.762;2024-03-23T08:42:33;8.15;;;3.40;;
20491;SDS011;10404;51.468;6.762;2024-03-23T08:44:59;7.45;;;3.08;;
20491;SDS011;10404;51.468;6.762;2024-03-23T08:47:24;6.72;;;3.45;;
20491;SDS011;10404;51.468;6.762;2024-03-23T08:49:50;6.93;;;3.40;;
20491;SDS011;10404;51.468;6.762;2024-03-23T08:52:16;5.63;;;2.72;;
20491;SDS011;10404;51.468;6.762;2024-03-23T08:54:41;5.85;;;2.70;;
20491;SDS011;10404;51.468;6.762;2024-03-23T08:57:07;5.03;;;2.25;;
20491;SDS011;10404;51.468;6.762;2024-03-23T08:59:33;5.00;;;3.00;;
20491;SDS011;10404;51.468;6.762;2024-03-23T09:01:59;4.53;;;2.50;;
20491;SDS011;10404;51.468;6.762;2024-03-23T09:04:25;5.97;;;2.30;;
20491;SDS011;10404;51.468;6.762;2024-03-23T09:06:50;4.13;;;2.10;;
20491;SDS011;10404;51.468;6.762;2024-03-23T09:09:16;5.30;;;2.17;;
20491;SDS011;10404;51.468;6.762;2024-03-23T09:11:42;4.90;;;1.90;;
20491;SDS011;10404;51.468;6.762;2024-03-23T09:14:08;4.18;;;1.85;;
20491;SDS011;10404;51.468;6.762;2024-03-23T09:16:34;5.10;;;1.83;;
20491;SDS011;10404;51.468;6.762;2024-03-23T09:19:00;6.20;;;2.25;;
20491;SDS011;10404;51.468;6.762;2024-03-23T09:21:25;4.85;;;2.08;;
20491;SDS011;10404;51.468;6.762;2024-03-23T09:23:51;6.15;;;2.47;;
20491;SDS011;10404;51.468;6.762;2024-03-23T09:26:17;6.15;;;2.22;;
20491;SDS011;10404;51.468;6.762;2024-03-23T09:28:42;4.95;;;3.05;;
20491;SDS011;10404;51.468;6.762;2024-03-23T09:31:08;4.80;;;2.15;;
20491;SDS011;10404;51.468;6.762;2024-03-23T09:33:35;5.13;;;2.67;;
20491;SDS011;10404;51.468;6.762;2024-03-23T09:36:04;5.55;;;2.72;;
20491;SDS011;10404;51.468;6.762;2024-03-23T09:38:30;6.80;;;3.13;;
20491;SDS011;10404;51.468;6.762;2024-03-23T09:40:56;3.97;;;2.65;;
20491;SDS011;10404;51.468;6.762;2024-03-23T09:43:23;4.75;;;2.55;;
20491;SDS011;10404;51.468;6.762;2024-03-23T09:45:49;6.15;;;2.53;;
20491;SDS011;10404;51.468;6.762;2024-03-23T09:48:15;3.70;;;2.30;;
20491;SDS011;10404;51.468;6.762;2024-03-23T09:50:41;4.53;;;2.90;;
20491;SDS011;10404;51.468;6.762;2024-03-23T09:53:08;5.80;;;2.40;;
20491;SDS011;10404;51.468;6.762;2024-03-23T09:55:38;4.00;;;2.60;;
20491;SDS011;10404;51.468;6.762;2024-03-23T09:58:06;5.35;;;3.00;;
20491;SDS011;10404;51.468;6.762;2024-03-23T10:00:32;9.38;;;2.75;;
20491;SDS011;10404;51.468;6.762;2024-03-23T10:02:58;4.68;;;2.50;;
20491;SDS011;10404;51.468;6.762;2024-03-23T10:05:27;3.17;;;2.17;;
20491;SDS011;10404;51.468;6.762;2024-03-23T10:10:40;4.45;;;2.05;;
20491;SDS011;10404;51.468;6.762;2024-03-23T10:13:06;6.20;;;2.20;;
20491;SDS011;10404;51.468;6.762;2024-03-23T10:15:34;5.70;;;2.35;;
20491;SDS011;10404;51.468;6.762;2024-03-23T10:18:21;6.57;;;1.80;;
20491;SDS011;10404;51.468;6.762;2024-03-23T10:20:51;3.88;;;1.80;;
20491;SDS011;10404;51.468;6.762;2024-03-23T10:23:18;5.65;;;1.85;;
20491;SDS011;10404;51.468;6.762;2024-03-23T10:25:44;6.70;;;2.10;;
20491;SDS011;10404;51.468;6.762;2024-03-23T10:28:11;5.80;;;1.65;;
20491;SDS011;10404;51.468;6.762;2024-03-23T10:30:36;3.88;;;1.65;;
20491;SDS011;10404;51.468;6.762;2024-03-23T10:33:09;3.85;;;1.60;;
20491;SDS011;10404;51.468;6.762;2024-03-23T10:35:36;3.05;;;1.55;;
20491;SDS011;10404;51.468;6.762;2024-03-23T10:38:04;4.22;;;1.40;;
20491;SDS011;10404;51.468;6.762;2024-03-23T10:40:31;4.38;;;1.83;;
20491;SDS011;10404;51.468;6.762;2024-03-23T10:42:59;4.07;;;1.60;;
20491;SDS011;10404;51.468;6.762;2024-03-23T10:45:25;4.00;;;1.50;;
20491;SDS011;10404;51.468;6.762;2024-03-23T10:47:51;4.18;;;1.40;;
20491;SDS011;10404;51.468;6.762;2024-03-23T10:50:17;3.85;;;1.27;;
20491;SDS011;10404;51.468;6.762;2024-03-23T10:52:44;1.88;;;1.10;;
20491;SDS011;10404;51.468;6.762;2024-03-23T10:55:12;3.33;;;1.08;;
20491;SDS011;10404;51.468;6.762;2024-03-23T10:58:02;2.40;;;1.42;;
20491;SDS011;10404;51.468;6.762;2024-03-23T11:00:27;2.88;;;1.05;;
20491;SDS011;10404;51.468;6.762;2024-03-23T11:02:53;2.35;;;1.10;;
20491;SDS011;10404;51.468;6.762;2024-03-23T11:05:28;3.53;;;0.85;;
20491;SDS011;10404;51.468;6.762;2024-03-23T11:07:54;2.55;;;0.90;;
20491;SDS011;10404;51.468;6.762;2024-03-23T11:10:30;1.63;;;0.80;;
20491;SDS011;10404;51.468;6.762;2024-03-23T11:12:57;1.23;;;0.88;;
20491;SDS011;10404;51.468;6.762;2024-03-23T11:15:22;2.45;;;0.88;;
20491;SDS011;10404;51.468;6.762;2024-03-23T11:20:46;2.63;;;0.68;;
20491;SDS011;10404;51.468;6.762;2024-03-23T11:23:27;1.92;;;0.77;;
20491;SDS011;10404;51.468;6.762;2024-03-23T11:25:53;2.50;;;1.10;;
20491;SDS011;10404;51.468;6.762;2024-03-23T11:28:19;3.50;;;1.05;;
20491;SDS011;10404;51.468;6.762;2024-03-23T11:30:45;2.17;;;0.90;;
20491;SDS011;10404;51.468;6.762;2024-03-23T11:33:11;1.88;;;0.90;;
20491;SDS011;10404;51.468;6.762;2024-03-23T11:35:38;3.17;;;1.00;;
20491;SDS011;10404;51.468;6.762;2024-03-23T11:40:30;2.75;;;1.20;;
20491;SDS011;10404;51.468;6.762;2024-03-23T11:45:55;2.65;;;1.40;;
20491;SDS011;10404;51.468;6.762;2024-03-23T11:48:22;3.20;;;1.35;;
20491;SDS011;10404;51.468;6.762;2024-03-23T11:50:54;2.58;;;1.23;;
20491;SDS011;10404;51.468;6.762;2024-03-23T11:53:21;3.78;;;1.20;;
20491;SDS011;10404;51.468;6.762;2024-03-23T11:58:21;4.07;;;1.98;;
20491;SDS011;10404;51.468;6.762;2024-03-23T12:03:30;3.05;;;1.40;;
20491;SDS011;10404;51.468;6.762;2024-03-23T12:06:01;1.92;;;1.02;;
20491;SDS011;10404;51.468;6.762;2024-03-23T12:13:37;4.88;;;0.95;;
20491;SDS011;10404;51.468;6.762;2024-03-23T12:16:13;3.38;;;1.20;;
20491;SDS011;10404;51.468;6.762;2024-03-23T12:18:42;3.55;;;1.48;;
20491;SDS011;10404;51.468;6.762;2024-03-23T12:21:12;3.58;;;1.42;;
20491;SDS011;10404;51.468;6.762;2024-03-23T12:23:41;2.25;;;0.95;;
20491;SDS011;10404;51.468;6.762;2024-03-23T12:26:07;3.67;;;1.20;;
20491;SDS011;10404;51.468;6.762;2024-03-23T12:28:34;3.78;;;1.20;;
20491;SDS011;10404;51.468;6.762;2024-03-23T12:31:00;2.70;;;1.63;;
20491;SDS011;10404;51.468;6.762;2024-03-23T12:33:25;4.90;;;1.65;;
20491;SDS011;10404;51.468;6.762;2024-03-23T12:35:52;2.78;;;1.50;;
20491;SDS011;10404;51.468;6.762;2024-03-23T12:38:18;3.67;;;1.17;;
20491;SDS011;10404;51.468;6.762;2024-03-23T12:40:48;3.20;;;1.27;;
20491;SDS011;10404;51.468;6.762;2024-03-23T12:43:14;3.05;;;1.42;;
20491;SDS011;10404;51.468;6.762;2024-03-23T12:45:40;3.60;;;1.10;;
20491;SDS011;10404;51.468;6.762;2024-03-23T12:48:05;3.55;;;1.40;;
20491;SDS011;10404;51.468;6.762;2024-03-23T12:50:32;3.38;;;1.02;;
20491;SDS011;10404;51.468;6.762;2024-03-23T12:52:57;3.30;;;1.65;;
20491;SDS011;10404;51.468;6.762;2024-03-23T12:55:23;3.08;;;1.23;;
20491;SDS011;10404;51.468;6.762;2024-03-23T12:57:48;4.07;;;1.20;;
20491;SDS011;10404;51.468;6.762;2024-03-23T13:00:14;3.00;;;1.20;;
20491;SDS011;10404;51.468;6.762;2024-03-23T13:02:42;2.50;;;1.10;;
20491;SDS011;10404;51.468;6.762;2024-03-23T13:05:09;1.70;;;1.10;;
20491;SDS011;10404;51.468;6.762;2024-03-23T13:07:35;1.70;;;0.95;;
20491;SDS011;10404;51.468;6.762;2024-03-23T13:10:02;2.80;;;0.50;;
20491;SDS011;10404;51.468;6.762;2024-03-23T13:12:28;1.75;;;0.75;;
20491;SDS011;10404;51.468;6.762;2024-03-23T13:14:54;2.15;;;0.93;;
20491;SDS011;10404;51.468;6.762;2024-03-23T13:17:20;2.40;;;0.80;;
20491;SDS011;10404;51.468;6.762;2024-03-23T13:19:45;2.00;;;0.90;;
20491;SDS011;10404;51.468;6.762;2024-03-23T13:22:12;2.15;;;0.90;;
20491;SDS011;10404;51.468;6.762;2024-03-23T13:24:37;2.80;;;1.27;;
20491;SDS011;10404;51.468;6.762;2024-03-23T13:27:03;3.25;;;0.80;;
20491;SDS011;10404;51.468;6.762;2024-03-23T13:29:32;1.40;;;0.68;;
20491;SDS011;10404;51.468;6.762;2024-03-23T13:31:59;2.47;;;1.08;;
20491;SDS011;10404;51.468;6.762;2024-03-23T13:34:25;2.70;;;1.08;;
20491;SDS011;10404;51.468;6.762;2024-03-23T13:36:50;2.80;;;1.02;;
20491;SDS011;10404;51.468;6.762;2024-03-23T13:39:16;2.35;;;1.40;;
20491;SDS011;10404;51.468;6.762;2024-03-23T13:41:42;2.72;;;1.15;;
20491;SDS011;10404;51.468;6.762;2024-03-23T13:44:09;3.03;;;1.60;;
20491;SDS011;10404;51.468;6.762;2024-03-23T13:46:36;3.75;;;1.88;;
20491;SDS011;10404;51.468;6.762;2024-03-23T13:49:02;4.28;;;1.70;;
20491;SDS011;10404;51.468;6.762;2024-03-23T13:51:28;2.83;;;1.63;;
20491;SDS011;10404;51.468;6.762;2024-03-23T13:53:54;2.70;;;1.90;;
20491;SDS011;10404;51.468;6.762;2024-03-23T13:56:21;2.47;;;1.67;;
20491;SDS011;10404;51.468;6.762;2024-03-23T13:58:50;4.25;;;2.00;;
20491;SDS011;10404;51.468;6.762;2024-03-23T14:01:16;2.22;;;1.15;;
20491;SDS011;10404;51.468;6.762;2024-03-23T14:03:43;3.30;;;1.35;;
20491;SDS011;10404;51.468;6.762;2024-03-23T14:06:09;3.72;;;1.70;;
20491;SDS011;10404;51.468;6.762;2024-03-23T14:08:35;4.10;;;1.52;;
20491;SDS011;10404;51.468;6.762;2024-03-23T14:11:04;2.70;;;1.15;;
20491;SDS011;10404;51.468;6.762;2024-03-23T14:13:36;2.35;;;1.33;;
20491;SDS011;10404;51.468;6.762;2024-03-23T14:16:02;3.20;;;1.30;;
20491;SDS011;10404;51.468;6.762;2024-03-23T14:18:28;3.20;;;1.50;;
20491;SDS011;10404;51.468;6.762;2024-03-23T14:20:57;1.65;;;1.05;;
20491;SDS011;10404;51.468;6.762;2024-03-23T14:23:27;3.75;;;1.30;;
20491;SDS011;10404;51.468;6.762;2024-03-23T14:25:54;2.78;;;1.23;;
20491;SDS011;10404;51.468;6.762;2024-03-23T14:28:21;3.38;;;0.93;;
20491;SDS011;10404;51.468;6.762;2024-03-23T14:30:51;2.33;;;0.80;;
20491;SDS011;10404;51.468;6.762;2024-03-23T14:33:20;2.63;;;0.80;;
20491;SDS011;10404;51.468;6.762;2024-03-23T14:35:52;3.40;;;1.10;;
20491;SDS011;10404;51.468;6.762;2024-03-23T14:38:22;3.20;;;1.23;;
20491;SDS011;10404;51.468;6.762;2024-03-23T14:40:47;1.90;;;0.80;;
20491;SDS011;10404;51.468;6.762;2024-03-23T14:43:13;9.82;;;1.88;;
20491;SDS011;10404;51.468;6.762;2024-03-23T14:46:28;3.78;;;0.90;;
20491;SDS011;10404;51.468;6.762;2024-03-23T14:48:35;1.85;;;0.57;;
20491;SDS011;10404;51.468;6.762;2024-03-23T14:51:01;3.78;;;0.77;;
20491;SDS011;10404;51.468;6.762;2024-03-23T14:53:29;2.63;;;0.93;;
20491;SDS011;10404;51.468;6.762;2024-03-23T14:55:56;3.20;;;0.50;;
20491;SDS011;10404;51.468;6.762;2024-03-23T14:58:22;2.50;;;0.60;;
20491;SDS011;10404;51.468;6.762;2024-03-23T15:00:48;2.42;;;0.30;;
20491;SDS011;10404;51.468;6.762;2024-03-23T15:03:14;3.03;;;0.47;;
20491;SDS011;10404;51.468;6.762;2024-03-23T15:05:40;1.23;;;0.50;;
20491;SDS011;10404;51.468;6.762;2024-03-23T15:08:06;1.88;;;0.43;;
20491;SDS011;10404;51.468;6.762;2024-03-23T15:10:35;1.58;;;0.73;;
20491;SDS011;10404;51.468;6.762;2024-03-23T15:13:00;3.75;;;0.80;;
20491;SDS011;10404;51.468;6.762;2024-03-23T15:15:26;1.40;;;0.57;;
20491;SDS011;10404;51.468;6.762;2024-03-23T15:17:51;3.65;;;0.98;;
20491;SDS011;10404;51.468;6.762;2024-03-23T15:20:17;1.35;;;0.45;;
20491;SDS011;10404;51.468;6.762;2024-03-23T15:22:43;1.73;;;0.38;;
20491;SDS011;10404;51.468;6.762;2024-03-23T15:25:08;3.25;;;0.43;;
20491;SDS011;10404;51.468;6.762;2024-03-23T15:27:34;2.92;;;0.85;;
20491;SDS011;10404;51.468;6.762;2024-03-23T15:30:00;2.03;;;0.70;;
20491;SDS011;10404;51.468;6.762;2024-03-23T15:32:25;2.17;;;0.50;;
20491;SDS011;10404;51.468;6.762;2024-03-23T15:34:51;2.28;;;0.70;;
20491;SDS011;10404;51.468;6.762;2024-03-23T15:37:17;1.58;;;0.77;;
20491;SDS011;10404;51.468;6.762;2024-03-23T15:39:42;2.42;;;0.88;;
20491;SDS011;10404;51.468;6.762;2024-03-23T15:42:08;2.78;;;1.05;;
20491;SDS011;10404;51.468;6.762;2024-03-23T15:44:35;1.42;;;0.73;;
20491;SDS011;10404;51.468;6.762;2024-03-23T15:47:00;2.60;;;0.75;;
20491;SDS011;10404;51.468;6.762;2024-03-23T15:49:26;2.05;;;0.70;;
20491;SDS011;10404;51.468;6.762;2024-03-23T15:51:51;2.28;;;0.50;;
20491;SDS011;10404;51.468;6.762;2024-03-23T15:54:18;1.70;;;0.70;;
20491;SDS011;10404;51.468;6.762;2024-03-23T15:56:44;1.98;;;0.90;;
20491;SDS011;10404;51.468;6.762;2024-03-23T15:59:09;2.10;;;0.90;;
20491;SDS011;10404;51.468;6.762;2024-03-23T16:01:35;1.63;;;0.80;;
20491;SDS011;10404;51.468;6.762;2024-03-23T16:04:01;3.20;;;1.10;;
20491;SDS011;10404;51.468;6.762;2024-03-23T16:06:27;2.25;;;1.27;;
20491;SDS011;10404;51.468;6.762;2024-03-23T16:08:53;2.33;;;0.70;;